createdAt,value
2023-10-09T00:01:55.724Z,101005.19
2023-10-09T00:04:25.790Z,100997.69
2023-10-09T00:06:56.504Z,101008.97
2023-10-09T00:09:26.519Z,101016.91
2023-10-09T00:11:59.862Z,101006.50
2023-10-09T00:14:35.953Z,101016.53
2023-10-09T00:17:15.021Z,101016.03
2023-10-09T00:19:45.887Z,101010.84
2023-10-09T00:22:23.374Z,101006.38
2023-10-09T00:25:15.981Z,101013.28
2023-10-09T00:27:48.117Z,101006.31
2023-10-09T00:30:31.993Z,101000.41
2023-10-09T00:33:08.145Z,101005.75
2023-10-09T00:35:56.421Z,100999.06
2023-10-09T00:38:35.764Z,101010.03
2023-10-09T00:41:11.980Z,101000.06
2023-10-09T00:43:45.754Z,101002.97
2023-10-09T00:46:26.072Z,100994.19
2023-10-09T00:49:05.188Z,100996.56
2023-10-09T00:51:38.634Z,101005.91
2023-10-09T00:54:17.220Z,101006.56
2023-10-09T00:56:59.301Z,100999.13
2023-10-09T00:59:30.595Z,100999.78
2023-10-09T01:02:06.564Z,101001.94
2023-10-09T01:04:39.412Z,100995.78
2023-10-09T01:07:23.473Z,101002.31
2023-10-09T01:09:56.673Z,100995.91
2023-10-09T01:12:31.081Z,101001.56
2023-10-09T01:15:03.191Z,101011.84
2023-10-09T01:17:47.417Z,100998.75
2023-10-09T01:20:34.375Z,101009.78
2023-10-09T01:23:05.198Z,100996.19
2023-10-09T01:25:45.353Z,101001.22
2023-10-09T01:28:17.819Z,101001.88
2023-10-09T01:30:49.673Z,101002.31
2023-10-09T01:33:29.289Z,100996.03
2023-10-09T01:36:03.684Z,100997.34
2023-10-09T01:38:42.737Z,100999.84
2023-10-09T01:41:22.059Z,101000.28
2023-10-09T01:43:53.768Z,100994.50
2023-10-09T01:46:25.427Z,100998.66
2023-10-09T01:48:57.029Z,100997.63
2023-10-09T01:51:35.518Z,100997.22
2023-10-09T01:54:06.551Z,100997.22
2023-10-09T01:56:41.813Z,100991.16
2023-10-09T01:59:13.478Z,100988.66
2023-10-09T02:01:49.991Z,100994.91
2023-10-09T02:04:22.603Z,100985.53
2023-10-09T02:06:54.869Z,100978.22
2023-10-09T02:09:32.998Z,100962.53
2023-10-09T02:12:04.867Z,100956.69
2023-10-09T02:14:40.098Z,100964.00
2023-10-09T02:17:12.462Z,100965.28
2023-10-09T02:19:44.908Z,100957.53
2023-10-09T02:22:16.137Z,100959.00
2023-10-09T02:24:50.587Z,100956.91
2023-10-09T02:27:58.734Z,100952.31
2023-10-09T02:30:29.701Z,100948.78
2023-10-09T02:33:11.527Z,100939.78
2023-10-09T02:35:44.794Z,100933.53
2023-10-09T02:38:19.574Z,100928.09
2023-10-09T02:41:05.994Z,100938.97
2023-10-09T02:43:49.995Z,100937.31
2023-10-09T02:46:35.186Z,100928.53
2023-10-09T02:49:06.359Z,100944.00
2023-10-09T02:51:44.097Z,100928.09
2023-10-09T02:54:21.038Z,100930.81
2023-10-09T02:57:00.371Z,100930.19
2023-10-09T02:59:32.556Z,100934.34
2023-10-09T03:02:03.569Z,100928.09
2023-10-09T03:04:34.990Z,100928.31
2023-10-09T03:07:06.420Z,100924.38
2023-10-09T03:09:37.872Z,100920.38
2023-10-09T03:12:12.356Z,100915.59
2023-10-09T03:14:44.900Z,100909.31
2023-10-09T03:17:15.903Z,100903.88
2023-10-09T03:19:48.224Z,100903.50
2023-10-09T03:22:19.326Z,100894.31
2023-10-09T03:24:51.834Z,100895.13
2023-10-09T03:27:25.452Z,100881.75
2023-10-09T03:29:56.697Z,100881.75
2023-10-09T03:32:27.582Z,100878.41
2023-10-09T03:35:01.508Z,100873.44
2023-10-09T03:37:36.858Z,100867.78
2023-10-09T03:40:17.853Z,100876.31
2023-10-09T03:42:49.805Z,100870.88
2023-10-09T03:45:27.495Z,100865.03
2023-10-09T03:48:18.106Z,100861.91
2023-10-09T03:50:51.102Z,100860.88
2023-10-09T03:53:21.941Z,100853.78
2023-10-09T03:55:52.954Z,100849.34
2023-10-09T03:58:24.405Z,100850.78
2023-10-09T04:00:57.257Z,100848.91
2023-10-09T04:03:29.801Z,100844.91
2023-10-09T04:06:02.699Z,100844.06
2023-10-09T04:08:35.722Z,100841.16
2023-10-09T04:11:18.225Z,100841.09
2023-10-09T04:13:49.504Z,100839.63
2023-10-09T04:16:37.109Z,100825.59
2023-10-09T04:19:13.407Z,100819.72
2023-10-09T04:21:44.609Z,100818.03
2023-10-09T04:24:15.890Z,100812.72
2023-10-09T04:26:47.495Z,100802.03
2023-10-09T04:29:40.999Z,100803.25
2023-10-09T04:32:19.496Z,100799.22
2023-10-09T04:34:51.111Z,100794.66
2023-10-09T04:37:40.253Z,100793.25
2023-10-09T04:40:15.784Z,100786.16
2023-10-09T04:43:00.246Z,100781.34
2023-10-09T04:45:46.191Z,100767.75
2023-10-09T04:48:34.841Z,100770.66
2023-10-09T04:51:36.377Z,100764.22
2023-10-09T04:54:17.011Z,100759.00
2023-10-09T04:56:57.099Z,100753.69
2023-10-09T04:59:28.285Z,100759.06
2023-10-09T05:02:00.547Z,100747.13
2023-10-09T05:04:40.714Z,100738.81
2023-10-09T05:07:38.937Z,100745.56
2023-10-09T05:10:22.205Z,100739.75
2023-10-09T05:13:00.342Z,100734.53
2023-10-09T05:15:32.006Z,100728.97
2023-10-09T05:18:11.492Z,100714.75
2023-10-09T05:21:05.070Z,100710.22
2023-10-09T05:23:46.626Z,100712.69
2023-10-09T05:26:36.530Z,100713.59
2023-10-09T05:29:27.420Z,100732.81
2023-10-09T05:32:08.058Z,100774.66
2023-10-09T05:34:58.651Z,100833.38
2023-10-09T05:37:35.723Z,100852.50
2023-10-09T05:40:37.344Z,100847.88
2023-10-09T05:43:08.519Z,100844.59
2023-10-09T05:45:57.268Z,100840.88
2023-10-09T05:48:28.182Z,100826.69
2023-10-09T05:51:11.627Z,100801.47
2023-10-09T05:53:48.531Z,100783.31
2023-10-09T05:56:46.890Z,100786.63
2023-10-09T05:59:35.814Z,100805.38
2023-10-09T06:02:24.515Z,100807.88
2023-10-09T06:05:00.028Z,100794.53
2023-10-09T06:07:50.789Z,100789.53
2023-10-09T06:10:39.696Z,100782.44
2023-10-09T06:13:30.933Z,100779.91
2023-10-09T06:16:30.929Z,100780.34
2023-10-09T06:19:10.658Z,100769.09
2023-10-09T06:21:44.686Z,100755.31
2023-10-09T06:24:15.887Z,100751.56
2023-10-09T06:27:16.093Z,100752.41
2023-10-09T06:29:46.974Z,100762.00
2023-10-09T06:32:21.009Z,100758.19
2023-10-09T06:34:59.327Z,100761.75
2023-10-09T06:37:32.963Z,100753.63
2023-10-09T06:40:32.672Z,100738.19
2023-10-09T06:43:09.498Z,100732.78
2023-10-09T06:45:46.879Z,100738.19
2023-10-09T06:48:36.201Z,100738.59
2023-10-09T06:51:29.551Z,100736.53
2023-10-09T06:54:01.182Z,100746.97
2023-10-09T06:56:32.869Z,100740.25
2023-10-09T06:59:17.255Z,100749.03
2023-10-09T07:02:06.508Z,100748.63
2023-10-09T07:04:40.786Z,100751.72
2023-10-09T07:07:17.122Z,100746.97
2023-10-09T07:10:08.444Z,100737.00
2023-10-09T07:12:44.884Z,100725.53
2023-10-09T07:15:48.000Z,100721.97
2023-10-09T07:18:25.371Z,100734.50
2023-10-09T07:21:03.801Z,100742.84
2023-10-09T07:23:34.949Z,100757.44
2023-10-09T07:26:29.662Z,100760.31
2023-10-09T07:29:55.549Z,100757.00
2023-10-09T07:32:45.799Z,100761.19
2023-10-09T07:35:36.084Z,100754.50
2023-10-09T07:38:11.017Z,100768.44
2023-10-09T07:41:02.491Z,100761.59
2023-10-09T07:43:41.477Z,100759.50
2023-10-09T07:46:34.559Z,100759.69
2023-10-09T07:49:16.459Z,100756.97
2023-10-09T07:51:49.214Z,100758.88
2023-10-09T07:54:34.160Z,100759.50
2023-10-09T07:57:20.100Z,100768.25
2023-10-09T08:00:26.128Z,100767.22
2023-10-09T08:03:02.519Z,100782.84
2023-10-09T08:05:35.706Z,100788.47
2023-10-09T08:08:36.132Z,100779.94
2023-10-09T08:11:30.244Z,100782.66
2023-10-09T08:14:04.434Z,100784.31
2023-10-09T08:16:43.141Z,100787.03
2023-10-09T08:19:43.446Z,100796.19
2023-10-09T08:22:40.360Z,100806.63
2023-10-09T08:25:28.529Z,100793.69
2023-10-09T08:28:22.095Z,100788.28
2023-10-09T08:30:57.164Z,100782.00
2023-10-09T08:36:07.106Z,100780.34
2023-10-09T08:38:38.167Z,100781.19
2023-10-09T08:41:22.697Z,100782.22
2023-10-09T08:43:55.444Z,100775.97
2023-10-09T08:46:31.064Z,100774.31
2023-10-09T08:49:02.679Z,100773.69
2023-10-09T08:51:37.533Z,100780.53
2023-10-09T08:54:16.921Z,100778.06
2023-10-09T08:56:54.025Z,100778.69
2023-10-09T08:59:24.857Z,100784.09
2023-10-09T09:01:56.362Z,100783.66
2023-10-09T09:04:43.776Z,100782.00
2023-10-09T09:07:41.438Z,100791.19
2023-10-09T09:10:25.459Z,100803.25
2023-10-09T09:13:02.968Z,100792.63
2023-10-09T09:15:33.931Z,100782.00
2023-10-09T09:18:13.960Z,100782.41
2023-10-09T09:20:47.731Z,100785.75
2023-10-09T09:23:26.004Z,100788.25
2023-10-09T09:26:06.108Z,100798.03
2023-10-09T09:28:41.313Z,100805.34
2023-10-09T09:31:24.480Z,100805.56
2023-10-09T09:34:05.616Z,100807.00
2023-10-09T09:36:40.227Z,100811.56
2023-10-09T09:39:21.410Z,100822.41
2023-10-09T09:41:54.393Z,100819.50
2023-10-09T09:44:32.924Z,100815.53
2023-10-09T09:47:04.142Z,100817.03
2023-10-09T09:49:36.130Z,100816.38
2023-10-09T09:52:12.216Z,100808.03
2023-10-09T09:54:43.196Z,100815.34
2023-10-09T09:57:24.111Z,100813.25
2023-10-09T09:59:57.578Z,100814.91
2023-10-09T10:02:37.897Z,100812.84
2023-10-09T10:05:13.643Z,100814.69
2023-10-09T10:07:51.733Z,100822.81
2023-10-09T10:10:50.114Z,100844.06
2023-10-09T10:13:41.163Z,100847.00
2023-10-09T10:16:22.224Z,100857.38
2023-10-09T10:19:09.705Z,100850.91
2023-10-09T10:21:40.659Z,100862.63
2023-10-09T10:24:33.443Z,100859.50
2023-10-09T10:27:42.586Z,100864.06
2023-10-09T10:30:15.756Z,100864.31
2023-10-09T10:32:57.165Z,100873.88
2023-10-09T10:35:46.884Z,100880.28
2023-10-09T10:38:44.365Z,100887.81
2023-10-09T10:41:24.531Z,100886.13
2023-10-09T10:43:55.486Z,100882.41
2023-10-09T10:46:31.773Z,100885.47
2023-10-09T10:49:27.934Z,100889.81
2023-10-09T10:52:24.624Z,100893.53
2023-10-09T10:55:19.941Z,100901.66
2023-10-09T10:57:58.163Z,100923.94
2023-10-09T11:00:48.180Z,100928.50
2023-10-09T11:03:32.226Z,100941.41
2023-10-09T11:06:16.982Z,100935.38
2023-10-09T11:09:01.262Z,100949.78
2023-10-09T11:11:34.851Z,100948.97
2023-10-09T11:14:18.062Z,100961.00
2023-10-09T11:16:52.030Z,100961.47
2023-10-09T11:19:30.386Z,100960.59
2023-10-09T11:22:09.645Z,100963.88
2023-10-09T11:24:40.729Z,100978.44
2023-10-09T11:27:20.884Z,100988.44
2023-10-09T11:29:52.326Z,100997.59
2023-10-09T11:32:27.415Z,100999.84
2023-10-09T11:35:30.214Z,101004.25
2023-10-09T11:38:01.801Z,101002.56
2023-10-09T11:40:54.068Z,101015.47
2023-10-09T11:43:47.169Z,101011.09
2023-10-09T11:46:38.675Z,101015.28
2023-10-09T11:49:24.071Z,101010.84
2023-10-09T11:52:27.335Z,101008.38
2023-10-09T11:54:58.914Z,101021.28
2023-10-09T11:57:35.508Z,101020.59
2023-10-09T12:00:30.872Z,101017.88
2023-10-09T12:03:07.954Z,101012.72
2023-10-09T12:05:39.797Z,101014.19
2023-10-09T12:08:10.889Z,101010.84
2023-10-09T12:10:42.457Z,101009.16
2023-10-09T12:13:17.781Z,101015.59
2023-10-09T12:15:48.853Z,101014.56
2023-10-09T12:18:21.064Z,101017.28
2023-10-09T12:20:57.392Z,101021.22
2023-10-09T12:23:30.063Z,101026.03
2023-10-09T12:26:01.212Z,101031.84
2023-10-09T12:28:35.110Z,101029.13
2023-10-09T12:31:06.084Z,101032.88
2023-10-09T12:33:41.871Z,101037.03
2023-10-09T12:36:22.094Z,101041.00
2023-10-09T12:38:56.256Z,101035.16
2023-10-09T12:41:28.934Z,101039.47
2023-10-09T12:44:04.078Z,101041.78
2023-10-09T12:46:39.814Z,101037.41
2023-10-09T12:49:10.870Z,101035.91
2023-10-09T12:51:42.517Z,101040.50
2023-10-09T12:54:16.957Z,101035.09
2023-10-09T12:56:53.223Z,101032.28
2023-10-09T12:59:26.323Z,101032.13
2023-10-09T13:02:00.303Z,101034.97
2023-10-09T13:04:34.157Z,101034.44
2023-10-09T13:07:06.564Z,101039.78
2023-10-09T13:09:38.032Z,101034.56
2023-10-09T13:12:20.230Z,101034.97
2023-10-09T13:14:54.343Z,101039.97
2023-10-09T13:17:29.330Z,101040.63
2023-10-09T13:20:00.570Z,101038.94
2023-10-09T13:22:32.614Z,101038.94
2023-10-09T13:25:06.533Z,101039.97
2023-10-09T13:27:37.891Z,101040.16
2023-10-09T13:30:11.292Z,101043.47
2023-10-09T13:32:42.141Z,101042.44
2023-10-09T13:35:17.034Z,101042.81
2023-10-09T13:37:56.141Z,101028.50
2023-10-09T13:40:31.804Z,101030.75
2023-10-09T13:43:02.887Z,101022.72
2023-10-09T13:45:40.734Z,101022.47
2023-10-09T13:48:13.804Z,101023.09
2023-10-09T13:50:44.974Z,101028.25
2023-10-09T13:53:20.141Z,101022.59
2023-10-09T13:55:53.630Z,101030.31
2023-10-09T13:58:24.525Z,101029.69
2023-10-09T14:00:55.763Z,101033.84
2023-10-09T14:03:31.284Z,101038.81
2023-10-09T14:06:12.374Z,101027.34
2023-10-09T14:08:45.072Z,101017.56
2023-10-09T14:11:15.725Z,101014.22
2023-10-09T14:13:48.374Z,101005.88
2023-10-09T14:16:29.618Z,101005.72
2023-10-09T14:19:01.461Z,101008.16
2023-10-09T14:21:32.381Z,101008.81
2023-10-09T14:24:02.952Z,101008.81
2023-10-09T14:26:36.449Z,101010.22
2023-10-09T14:29:08.844Z,101009.38
2023-10-09T14:31:41.064Z,101022.47
2023-10-09T14:34:11.767Z,101018.72
2023-10-09T14:36:45.990Z,101024.13
2023-10-09T14:39:21.005Z,101024.97
2023-10-09T14:41:53.070Z,101024.13
2023-10-09T14:44:25.733Z,101027.22
2023-10-09T14:46:57.736Z,101024.53
2023-10-09T14:49:28.648Z,101021.59
2023-10-09T14:52:01.249Z,101016.41
2023-10-09T14:54:31.928Z,101017.44
2023-10-09T14:57:02.861Z,101013.22
2023-10-09T14:59:33.399Z,101005.97
2023-10-09T15:02:04.267Z,101010.09
2023-10-09T15:04:38.007Z,101005.31
2023-10-09T15:07:12.795Z,101006.16
2023-10-09T15:09:46.759Z,101009.41
2023-10-09T15:12:17.722Z,101008.22
2023-10-09T15:14:48.234Z,101004.00
2023-10-09T15:17:21.229Z,101007.38
2023-10-09T15:19:57.162Z,101005.72
2023-10-09T15:22:30.727Z,101001.31
2023-10-09T15:25:04.564Z,101005.03
2023-10-09T15:27:35.234Z,101000.66
2023-10-09T15:30:08.992Z,101008.94
2023-10-09T15:32:40.300Z,101006.06
2023-10-09T15:35:17.070Z,101011.66
2023-10-09T15:37:54.421Z,101007.47
2023-10-09T15:40:26.760Z,101005.16
2023-10-09T15:42:58.710Z,101002.06
2023-10-09T15:45:33.526Z,101002.25
2023-10-09T15:48:06.885Z,100994.97
2023-10-09T15:50:37.602Z,100997.31
2023-10-09T15:53:12.394Z,100995.63
2023-10-09T15:55:43.194Z,101006.63
2023-10-09T15:58:14.260Z,100992.28
2023-10-09T16:00:47.649Z,101000.78
2023-10-09T16:03:19.154Z,101001.41
2023-10-09T16:05:49.805Z,100998.44
2023-10-09T16:08:21.443Z,101009.25
2023-10-09T16:10:52.160Z,101011.31
2023-10-09T16:13:23.493Z,101009.84
2023-10-09T16:15:53.361Z,100994.47
2023-10-09T16:18:23.448Z,100999.41
2023-10-09T16:20:54.189Z,101000.84
2023-10-09T16:23:24.545Z,100990.47
2023-10-09T16:25:54.636Z,100987.75
2023-10-09T16:28:24.648Z,100993.81
2023-10-09T16:30:56.045Z,100983.38
2023-10-09T16:33:28.017Z,100987.09
2023-10-09T16:36:01.494Z,100987.50
2023-10-09T16:38:33.357Z,100987.88
2023-10-09T16:41:12.502Z,100983.31
2023-10-09T16:43:47.382Z,100990.41
2023-10-09T16:46:18.975Z,100987.44
2023-10-09T16:48:53.719Z,100971.13
2023-10-09T16:51:24.050Z,100994.78
2023-10-09T16:53:56.891Z,100972.91
2023-10-09T16:56:34.838Z,100966.94
2023-10-09T16:59:05.986Z,100960.69
2023-10-09T17:01:36.020Z,100962.75
2023-10-09T17:04:13.687Z,100959.00
2023-10-09T17:06:45.902Z,100958.00
2023-10-09T17:09:16.905Z,100954.63
2023-10-09T17:11:46.870Z,100945.13
2023-10-09T17:14:18.963Z,100957.81
2023-10-09T17:16:49.520Z,100955.28
2023-10-09T17:19:19.635Z,100952.00
2023-10-09T17:21:51.837Z,100950.16
2023-10-09T17:24:22.658Z,100956.22
2023-10-09T17:26:57.735Z,100958.94
2023-10-09T17:29:29.143Z,100947.47
2023-10-09T17:31:59.146Z,100952.22
2023-10-09T17:34:29.454Z,100950.19
2023-10-09T17:36:59.590Z,100935.38
2023-10-09T17:39:29.596Z,100922.72
2023-10-09T17:42:00.171Z,100916.84
2023-10-09T17:44:33.143Z,100909.22
2023-10-09T17:47:03.575Z,100897.94
2023-10-09T17:49:33.832Z,100902.91
2023-10-09T17:52:03.755Z,100899.38
2023-10-09T17:54:36.636Z,100909.16
2023-10-09T17:57:06.522Z,100905.81
2023-10-09T17:59:37.023Z,100907.84
2023-10-09T18:02:07.308Z,100909.69
2023-10-09T18:04:37.532Z,100904.13
2023-10-09T18:07:07.514Z,100895.00
2023-10-09T18:09:37.646Z,100907.47
2023-10-09T18:12:07.428Z,100896.78
2023-10-09T18:14:37.297Z,100889.31
2023-10-09T18:17:08.777Z,100891.84
2023-10-09T18:19:41.034Z,100881.06
2023-10-09T18:22:14.176Z,100870.91
2023-10-09T18:24:44.687Z,100860.28
2023-10-09T18:27:18.761Z,100861.13
2023-10-09T18:29:50.530Z,100863.81
2023-10-09T18:32:21.147Z,100868.59
2023-10-09T18:34:51.082Z,100862.81
2023-10-09T18:37:21.143Z,100862.81
2023-10-09T18:39:51.734Z,100864.84
2023-10-09T18:42:21.986Z,100854.44
2023-10-09T18:44:51.972Z,100857.78
2023-10-09T18:47:22.261Z,100855.47
2023-10-09T18:49:52.232Z,100863.34
2023-10-09T18:52:23.524Z,100860.22
2023-10-09T18:54:54.090Z,100858.03
2023-10-09T18:57:26.081Z,100854.81
2023-10-09T18:59:56.029Z,100851.59
2023-10-09T19:02:28.133Z,100855.47
2023-10-09T19:04:58.293Z,100854.06
2023-10-09T19:07:29.187Z,100851.09
2023-10-09T19:09:59.129Z,100853.13
2023-10-09T19:12:28.918Z,100853.78
2023-10-09T19:14:59.415Z,100855.53
2023-10-09T19:17:29.360Z,100859.25
2023-10-09T19:19:59.439Z,100855.53
2023-10-09T19:22:29.506Z,100854.81
2023-10-09T19:25:00.922Z,100848.28
2023-10-09T19:27:32.425Z,100859.16
2023-10-09T19:30:06.286Z,100860.06
2023-10-09T19:32:36.517Z,100864.06
2023-10-09T19:35:06.866Z,100857.69
2023-10-09T19:37:36.810Z,100861.88
2023-10-09T19:40:10.181Z,100849.31
2023-10-09T19:42:41.004Z,100844.06
2023-10-09T19:45:12.863Z,100842.38
2023-10-09T19:47:42.841Z,100847.78
2023-10-09T19:50:16.174Z,100850.00
2023-10-09T19:52:50.155Z,100839.78
2023-10-09T19:55:23.714Z,100834.94
2023-10-09T19:57:56.735Z,100832.34
2023-10-09T20:00:26.560Z,100830.59
2023-10-09T20:02:56.720Z,100827.88
2023-10-09T20:05:29.690Z,100832.16
2023-10-09T20:08:01.225Z,100840.84
2023-10-09T20:10:32.848Z,100833.00
2023-10-09T20:13:05.985Z,100840.47
2023-10-09T20:15:36.800Z,100846.22
2023-10-09T20:18:11.406Z,100830.47
2023-10-09T20:20:47.403Z,100836.19
2023-10-09T20:23:20.190Z,100836.81
2023-10-09T20:26:01.071Z,100837.78
2023-10-09T20:28:30.968Z,100845.88
2023-10-09T20:31:03.462Z,100849.59
2023-10-09T20:33:38.166Z,100843.59
2023-10-09T20:36:18.569Z,100845.63
2023-10-09T20:38:51.198Z,100851.41
2023-10-09T20:41:29.537Z,100854.47
2023-10-09T20:44:07.427Z,100851.31
2023-10-09T20:46:38.306Z,100854.66
2023-10-09T20:49:09.869Z,100857.53
2023-10-09T20:51:54.949Z,100853.53
2023-10-09T20:54:29.792Z,100862.84
2023-10-09T20:57:05.048Z,100859.94
2023-10-09T20:59:37.894Z,100871.09
2023-10-09T21:02:08.821Z,100866.66
2023-10-09T21:04:38.803Z,100858.63
2023-10-09T21:07:14.056Z,100851.19
2023-10-09T21:09:50.052Z,100856.78
2023-10-09T21:12:24.226Z,100856.59
2023-10-09T21:14:54.193Z,100840.91
2023-10-09T21:17:24.673Z,100843.41
2023-10-09T21:19:54.824Z,100856.59
2023-10-09T21:22:24.905Z,100853.25
2023-10-09T21:24:57.685Z,100861.03
2023-10-09T21:27:27.626Z,100871.81
2023-10-09T21:30:00.416Z,100874.16
2023-10-09T21:32:42.719Z,100870.34
2023-10-09T21:35:19.660Z,100873.50
2023-10-09T21:38:03.260Z,100878.88
2023-10-09T21:40:35.361Z,100881.88
2023-10-09T21:43:19.019Z,100881.22
2023-10-09T21:45:51.524Z,100877.59
2023-10-09T21:48:21.626Z,100883.53
2023-10-09T21:51:05.571Z,100881.28
2023-10-09T21:53:36.372Z,100891.72
2023-10-09T21:56:16.140Z,100896.00
2023-10-09T21:58:50.391Z,100894.59
2023-10-09T22:01:32.909Z,100900.91
2023-10-09T22:04:02.841Z,100909.84
2023-10-09T22:06:35.976Z,100911.50
2023-10-09T22:09:09.615Z,100914.72
2023-10-09T22:11:39.575Z,100918.09
2023-10-09T22:14:09.430Z,100925.16
2023-10-09T22:16:42.364Z,100939.28
2023-10-09T22:19:16.876Z,100943.38
2023-10-09T22:21:49.620Z,100952.97
2023-10-09T22:24:20.892Z,100951.41
2023-10-09T22:26:53.208Z,100959.53
2023-10-09T22:29:29.553Z,100966.25
2023-10-09T22:32:01.635Z,100971.34
2023-10-09T22:34:44.748Z,100958.88
2023-10-09T22:37:21.673Z,100968.28
2023-10-09T22:39:54.106Z,100971.66
2023-10-09T22:42:28.862Z,100969.25
2023-10-09T22:45:07.002Z,100977.69
2023-10-09T22:47:46.755Z,100981.72
2023-10-09T22:50:24.425Z,100985.06
2023-10-09T22:52:57.910Z,100982.72
2023-10-09T22:55:37.789Z,100991.19
2023-10-09T22:58:15.225Z,100993.00
2023-10-09T23:00:56.526Z,100990.47
2023-10-09T23:03:30.918Z,100994.78
2023-10-09T23:06:17.311Z,100995.84
2023-10-09T23:08:58.137Z,100995.13
2023-10-09T23:11:33.460Z,100994.19
2023-10-09T23:14:43.579Z,100995.13
2023-10-09T23:17:20.351Z,101001.75
2023-10-09T23:20:01.355Z,100992.28
2023-10-09T23:22:40.167Z,100996.81
2023-10-09T23:25:33.631Z,101010.31
2023-10-09T23:28:31.790Z,101010.59
2023-10-09T23:31:02.748Z,101012.28
2023-10-09T23:33:34.837Z,101017.50
2023-10-09T23:36:07.865Z,101029.44
2023-10-09T23:38:57.586Z,101027.03
2023-10-09T23:41:28.147Z,101028.38
2023-10-09T23:43:58.168Z,101033.03
2023-10-09T23:46:32.401Z,101037.66
2023-10-09T23:49:02.212Z,101041.31
2023-10-09T23:51:32.089Z,101044.06
2023-10-09T23:54:12.165Z,101045.09
2023-10-09T23:56:49.228Z,101050.41
2023-10-09T23:59:41.010Z,101042.81
